Time;durP1;ratioP1;P1;durP2;ratioP2;P2;SDS_P1;SDS_P2;PMS_P1;PMS_P2;Temp;Humidity;BMP_temperature;BMP_pressure;BME280_temperature;BME280_humidity;BME280_pressure;Samples;Min_cycle;Max_cycle;Signal;HPM_P1;HPM_P2
2021/08/16 00:00:49;;;;;;;3.80;1.80;;;;;;;;;;6216190;28;20149;-82
2021/08/16 00:03:51;;;;;;;3.75;1.65;;;;;;;;;;6199357;28;20077;-81
2021/08/16 00:06:52;;;;;;;5.32;1.80;;;;;;;;;;6211528;28;20064;-81
2021/08/16 00:09:54;;;;;;;2.70;1.60;;;;;;;;;;6222363;28;20084;-81
2021/08/16 00:12:57;;;;;;;3.50;2.22;;;;;;;;;;6220434;28;20038;-81
2021/08/16 00:15:58;;;;;;;3.63;1.80;;;;;;;;;;6202580;28;20042;-81
2021/08/16 00:19:01;;;;;;;5.03;1.90;;;;;;;;;;6204579;28;20053;-81
2021/08/16 00:22:03;;;;;;;4.32;2.08;;;;;;;;;;6207382;28;20045;-81
2021/08/16 00:25:05;;;;;;;4.63;2.10;;;;;;;;;;6196977;28;20488;-81
2021/08/16 00:28:07;;;;;;;3.73;2.03;;;;;;;;;;6179787;28;20053;-81
2021/08/16 00:31:08;;;;;;;4.28;2.03;;;;;;;;;;6205620;28;20063;-81
2021/08/16 00:34:10;;;;;;;4.00;2.38;;;;;;;;;;6218796;28;20510;-81
2021/08/16 00:37:12;;;;;;;11.43;3.60;;;;;;;;;;6218341;28;20507;-81
2021/08/16 00:40:14;;;;;;;6.85;3.17;;;;;;;;;;6221346;28;20048;-81
2021/08/16 00:43:16;;;;;;;8.90;3.65;;;;;;;;;;6218286;28;20046;-81
2021/08/16 00:46:18;;;;;;;11.35;4.20;;;;;;;;;;6217095;28;20046;-81
2021/08/16 00:49:20;;;;;;;9.48;3.92;;;;;;;;;;6217922;28;20053;-81
2021/08/16 00:52:23;;;;;;;8.18;3.95;;;;;;;;;;6200640;28;20424;-81
2021/08/16 00:55:24;;;;;;;7.05;3.90;;;;;;;;;;6190485;28;20049;-81
2021/08/16 00:58:26;;;;;;;13.13;5.20;;;;;;;;;;6190175;28;20110;-81
2021/08/16 01:01:28;;;;;;;13.07;4.57;;;;;;;;;;6159054;28;20042;-81
2021/08/16 01:04:31;;;;;;;13.43;5.28;;;;;;;;;;6192555;28;20034;-82
2021/08/16 01:07:33;;;;;;;9.52;5.03;;;;;;;;;;6192552;28;20048;-82
2021/08/16 01:10:35;;;;;;;13.57;7.00;;;;;;;;;;6196505;28;20106;-81
2021/08/16 01:13:36;;;;;;;12.48;6.15;;;;;;;;;;6194151;28;20180;-81
2021/08/16 01:16:38;;;;;;;15.38;7.50;;;;;;;;;;6202289;28;20054;-81
2021/08/16 01:19:41;;;;;;;13.18;8.25;;;;;;;;;;6220528;28;20049;-81
2021/08/16 01:22:43;;;;;;;20.50;8.38;;;;;;;;;;6218786;28;20038;-81
2021/08/16 01:25:47;;;;;;;15.20;7.95;;;;;;;;;;6219935;28;20131;-82
2021/08/16 01:28:48;;;;;;;15.35;8.00;;;;;;;;;;6217996;28;20533;-82
2021/08/16 01:31:50;;;;;;;13.60;8.50;;;;;;;;;;6215405;28;20053;-81
2021/08/16 01:34:52;;;;;;;14.73;8.60;;;;;;;;;;6207454;28;20403;-81
2021/08/16 01:37:53;;;;;;;14.15;7.97;;;;;;;;;;6200152;28;20393;-81
2021/08/16 01:40:56;;;;;;;15.68;8.57;;;;;;;;;;6195731;28;20051;-81
2021/08/16 01:43:57;;;;;;;15.43;9.40;;;;;;;;;;6190231;28;20423;-81
2021/08/16 01:46:59;;;;;;;13.60;8.60;;;;;;;;;;6194310;28;20046;-81
2021/08/16 01:50:00;;;;;;;13.88;8.70;;;;;;;;;;6195258;28;20049;-81
2021/08/16 01:53:03;;;;;;;13.48;8.65;;;;;;;;;;6192973;28;20176;-80
2021/08/16 01:56:04;;;;;;;15.93;8.30;;;;;;;;;;6199731;28;20045;-81
2021/08/16 01:59:06;;;;;;;13.60;7.82;;;;;;;;;;6217888;28;20042;-82
2021/08/16 02:02:08;;;;;;;10.18;7.20;;;;;;;;;;6216749;28;20045;-81
2021/08/16 02:05:10;;;;;;;11.00;6.40;;;;;;;;;;6216041;28;20687;-81
2021/08/16 02:08:13;;;;;;;10.05;5.47;;;;;;;;;;6214914;28;20057;-81
2021/08/16 02:11:15;;;;;;;10.23;5.70;;;;;;;;;;6218431;28;20060;-81
2021/08/16 02:14:17;;;;;;;9.02;5.05;;;;;;;;;;6217925;28;20115;-81
2021/08/16 02:17:19;;;;;;;7.78;4.38;;;;;;;;;;6201201;28;20515;-82
2021/08/16 02:20:20;;;;;;;7.38;4.32;;;;;;;;;;6217168;28;20046;-81
2021/08/16 02:23:22;;;;;;;6.57;4.07;;;;;;;;;;6219151;28;20042;-82
2021/08/16 02:26:24;;;;;;;7.65;3.83;;;;;;;;;;6217184;28;20041;-82
2021/08/16 02:29:25;;;;;;;4.47;3.40;;;;;;;;;;6192747;28;20061;-81
2021/08/16 02:32:27;;;;;;;4.82;2.90;;;;;;;;;;6193952;28;20038;-81
2021/08/16 02:35:28;;;;;;;4.45;3.03;;;;;;;;;;6195530;28;20042;-81
2021/08/16 02:38:30;;;;;;;6.13;2.92;;;;;;;;;;6196338;28;20053;-81
2021/08/16 02:41:32;;;;;;;6.97;2.95;;;;;;;;;;6199830;28;20035;-81
2021/08/16 02:44:33;;;;;;;3.85;2.50;;;;;;;;;;6201492;28;20050;-81
2021/08/16 02:47:36;;;;;;;5.93;2.90;;;;;;;;;;6221795;28;20045;-82
2021/08/16 02:50:38;;;;;;;;;;;;;;;;;;6203986;28;20054;-81
2021/08/16 02:53:39;;;;;;;3.72;2.30;;;;;;;;;;6204350;28;19926;-81
2021/08/16 02:56:41;;;;;;;5.57;2.60;;;;;;;;;;6198203;28;20038;-81
2021/08/16 02:59:42;;;;;;;5.00;2.42;;;;;;;;;;6181628;28;20440;-81
2021/08/16 03:02:44;;;;;;;4.75;2.40;;;;;;;;;;6201523;28;20042;-81
2021/08/16 03:05:46;;;;;;;3.22;2.30;;;;;;;;;;6209090;28;20054;-81
2021/08/16 03:08:48;;;;;;;5.95;2.63;;;;;;;;;;6200695;28;20048;-81
2021/08/16 03:11:49;;;;;;;3.92;2.20;;;;;;;;;;6221242;28;20050;-81
2021/08/16 03:14:51;;;;;;;3.95;2.10;;;;;;;;;;6211613;28;20057;-80
2021/08/16 03:17:52;;;;;;;3.80;1.90;;;;;;;;;;6195354;28;20046;-81
2021/08/16 03:20:55;;;;;;;4.65;2.10;;;;;;;;;;6215935;28;20549;-81
2021/08/16 03:23:56;;;;;;;5.72;2.33;;;;;;;;;;6203528;28;20511;-81
2021/08/16 03:26:59;;;;;;;2.67;2.00;;;;;;;;;;6196204;28;20126;-81
2021/08/16 03:30:02;;;;;;;5.32;2.38;;;;;;;;;;6201406;28;20041;-81
2021/08/16 03:33:04;;;;;;;3.00;1.90;;;;;;;;;;6220433;28;20060;-81
2021/08/16 03:36:06;;;;;;;4.43;2.10;;;;;;;;;;6210520;28;20057;-81
2021/08/16 03:39:07;;;;;;;4.53;1.60;;;;;;;;;;6198081;28;20046;-81
2021/08/16 03:42:09;;;;;;;4.85;1.60;;;;;;;;;;6212015;28;20049;-80
2021/08/16 03:45:14;;;;;;;2.72;1.33;;;;;;;;;;6203393;28;20047;-82
2021/08/16 03:48:18;;;;;;;5.32;1.60;;;;;;;;;;6196212;28;20492;-81
2021/08/16 03:51:19;;;;;;;3.95;1.38;;;;;;;;;;6202956;28;20038;-81
2021/08/16 03:54:21;;;;;;;6.13;1.10;;;;;;;;;;6201987;28;20054;-81
2021/08/16 03:57:22;;;;;;;2.90;1.05;;;;;;;;;;6198758;28;20042;-81
2021/08/16 04:00:24;;;;;;;2.42;1.20;;;;;;;;;;6172390;28;20515;-81
2021/08/16 04:03:26;;;;;;;2.50;1.10;;;;;;;;;;6172136;28;20054;-82
2021/08/16 04:06:28;;;;;;;2.45;1.02;;;;;;;;;;6182528;28;20522;-81
2021/08/16 04:09:30;;;;;;;4.13;1.70;;;;;;;;;;6198931;28;20050;-81
2021/08/16 04:12:32;;;;;;;3.50;1.10;;;;;;;;;;6221340;28;20042;-83
2021/08/16 04:15:33;;;;;;;1.83;1.10;;;;;;;;;;6195989;28;20042;-81
2021/08/16 04:18:36;;;;;;;3.28;1.20;;;;;;;;;;6201819;28;20101;-81
2021/08/16 04:21:37;;;;;;;2.00;1.00;;;;;;;;;;6207090;28;20051;-81
2021/08/16 04:24:39;;;;;;;2.88;1.00;;;;;;;;;;6194443;28;20054;-80
2021/08/16 04:27:41;;;;;;;3.85;1.20;;;;;;;;;;6170871;28;20046;-82
2021/08/16 04:30:43;;;;;;;5.60;1.10;;;;;;;;;;6179857;28;20046;-82
2021/08/16 04:33:44;;;;;;;2.83;1.10;;;;;;;;;;6216133;28;20491;-80
2021/08/16 04:36:46;;;;;;;3.97;1.10;;;;;;;;;;6219145;28;20053;-80
2021/08/16 04:39:47;;;;;;;4.20;1.30;;;;;;;;;;6220683;28;20049;-82
2021/08/16 04:42:49;;;;;;;2.97;1.30;;;;;;;;;;6224635;28;20054;-79
2021/08/16 04:45:51;;;;;;;2.22;1.00;;;;;;;;;;6222093;28;20068;-79
2021/08/16 04:48:52;;;;;;;2.45;1.48;;;;;;;;;;6210143;28;20052;-78
2021/08/16 04:51:54;;;;;;;2.95;1.00;;;;;;;;;;6222420;28;20073;-80
2021/08/16 04:54:56;;;;;;;3.85;1.20;;;;;;;;;;6194528;28;20568;-79
2021/08/16 04:57:57;;;;;;;5.82;1.48;;;;;;;;;;6208615;28;20048;-80
2021/08/16 05:01:00;;;;;;;2.15;0.93;;;;;;;;;;6208266;28;20110;-80
2021/08/16 05:04:01;;;;;;;3.10;1.15;;;;;;;;;;6207812;28;20097;-79
2021/08/16 05:07:03;;;;;;;2.97;1.60;;;;;;;;;;6207845;28;20050;-78
2021/08/16 05:10:07;;;;;;;4.70;0.93;;;;;;;;;;6207288;28;20052;-79
2021/08/16 05:13:08;;;;;;;1.80;0.77;;;;;;;;;;6232594;28;20057;-80
2021/08/16 05:16:10;;;;;;;2.90;1.08;;;;;;;;;;6225519;28;20144;-80
2021/08/16 05:19:12;;;;;;;2.92;1.05;;;;;;;;;;6203405;28;20050;-77
2021/08/16 05:22:16;;;;;;;4.55;1.00;;;;;;;;;;6195231;28;20050;-80
2021/08/16 05:25:19;;;;;;;5.10;1.30;;;;;;;;;;6206004;28;20066;-79
2021/08/16 05:28:21;;;;;;;2.93;0.77;;;;;;;;;;6207768;28;20053;-78
2021/08/16 05:31:23;;;;;;;1.95;0.85;;;;;;;;;;6190049;28;20050;-78
2021/08/16 05:34:25;;;;;;;2.10;1.08;;;;;;;;;;6205425;28;20046;-78
2021/08/16 05:37:26;;;;;;;3.97;0.97;;;;;;;;;;6190063;28;20110;-79
2021/08/16 05:40:28;;;;;;;3.65;1.00;;;;;;;;;;6183969;28;20049;-79
2021/08/16 05:43:29;;;;;;;4.18;1.15;;;;;;;;;;6182504;28;20118;-79
2021/08/16 05:46:31;;;;;;;3.92;1.08;;;;;;;;;;6192169;28;20142;-79
2021/08/16 05:49:33;;;;;;;1.42;0.82;;;;;;;;;;6230977;28;20766;-79
2021/08/16 05:52:34;;;;;;;2.80;1.00;;;;;;;;;;6230009;28;20117;-78
2021/08/16 05:55:36;;;;;;;4.40;0.98;;;;;;;;;;6230550;28;20046;-80
2021/08/16 05:58:38;;;;;;;1.90;0.80;;;;;;;;;;6207605;28;20097;-78
2021/08/16 06:01:39;;;;;;;2.15;1.13;;;;;;;;;;6204141;28;20042;-78
2021/08/16 06:04:41;;;;;;;3.22;0.70;;;;;;;;;;6203244;28;20049;-78
2021/08/16 06:07:43;;;;;;;1.55;0.70;;;;;;;;;;6193606;28;20050;-78
2021/08/16 06:10:44;;;;;;;2.67;1.02;;;;;;;;;;6201548;28;20132;-78
2021/08/16 06:13:46;;;;;;;2.17;0.80;;;;;;;;;;6200814;28;20054;-78
2021/08/16 06:16:49;;;;;;;1.10;0.90;;;;;;;;;;6202019;28;20082;-78
2021/08/16 06:19:50;;;;;;;1.92;0.93;;;;;;;;;;6180206;28;20042;-78
2021/08/16 06:22:55;;;;;;;3.38;0.80;;;;;;;;;;6211053;28;20042;-79
2021/08/16 06:25:57;;;;;;;3.50;0.90;;;;;;;;;;6202868;28;20042;-79
2021/08/16 06:28:58;;;;;;;5.18;0.70;;;;;;;;;;6190079;28;20043;-79
2021/08/16 06:32:00;;;;;;;3.58;1.20;;;;;;;;;;6205717;28;20107;-79
2021/08/16 06:35:05;;;;;;;2.70;0.93;;;;;;;;;;6206567;28;20109;-78
2021/08/16 06:38:12;;;;;;;2.83;0.88;;;;;;;;;;6214600;28;20121;-79
2021/08/16 06:41:18;;;;;;;1.83;0.90;;;;;;;;;;6195370;28;20054;-80
2021/08/16 06:44:23;;;;;;;1.30;0.63;;;;;;;;;;6215397;28;20130;-79
2021/08/16 06:47:24;;;;;;;2.47;0.93;;;;;;;;;;6216322;28;20070;-79
2021/08/16 06:50:26;;;;;;;1.77;0.88;;;;;;;;;;6222690;28;20069;-80
2021/08/16 06:53:27;;;;;;;3.17;0.77;;;;;;;;;;6215208;28;20042;-79
2021/08/16 06:56:29;;;;;;;2.60;0.73;;;;;;;;;;6199000;28;20408;-79
2021/08/16 06:59:35;;;;;;;0.70;0.43;;;;;;;;;;6192567;28;20132;-80
2021/08/16 07:02:36;;;;;;;2.83;0.85;;;;;;;;;;6204440;28;20089;-80
2021/08/16 07:05:43;;;;;;;1.53;0.67;;;;;;;;;;6193854;28;20506;-80
2021/08/16 07:08:45;;;;;;;1.02;0.65;;;;;;;;;;6220686;28;20204;-81
2021/08/16 07:11:47;;;;;;;2.20;0.90;;;;;;;;;;6204680;28;20061;-78
2021/08/16 07:14:54;;;;;;;1.95;0.60;;;;;;;;;;6214661;28;20052;-79
2021/08/16 07:17:56;;;;;;;2.15;0.90;;;;;;;;;;6220013;28;20588;-80
2021/08/16 07:20:58;;;;;;;3.00;0.88;;;;;;;;;;6203639;28;20335;-81
2021/08/16 07:24:00;;;;;;;5.80;1.00;;;;;;;;;;6220266;28;20045;-82
2021/08/16 07:27:02;;;;;;;5.22;1.20;;;;;;;;;;6221520;28;20050;-81
2021/08/16 07:30:05;;;;;;;2.70;0.70;;;;;;;;;;6203472;28;20050;-81
2021/08/16 07:33:06;;;;;;;2.50;1.00;;;;;;;;;;6213504;28;20042;-80
2021/08/16 07:36:08;;;;;;;1.48;0.77;;;;;;;;;;6213477;28;20097;-84
2021/08/16 07:39:09;;;;;;;2.33;1.00;;;;;;;;;;6233187;28;20077;-83
2021/08/16 07:42:11;;;;;;;2.45;0.80;;;;;;;;;;6233492;28;20523;-84
2021/08/16 07:45:13;;;;;;;3.63;0.80;;;;;;;;;;6221569;28;20050;-82
2021/08/16 07:48:15;;;;;;;2.20;1.03;;;;;;;;;;6223822;28;20045;-82
2021/08/16 07:51:16;;;;;;;2.08;0.60;;;;;;;;;;6211172;28;20288;-81
2021/08/16 07:54:18;;;;;;;3.38;0.80;;;;;;;;;;6205953;28;20117;-80
2021/08/16 07:57:20;;;;;;;1.83;0.90;;;;;;;;;;6204175;28;20051;-82
2021/08/16 08:00:22;;;;;;;2.17;0.83;;;;;;;;;;6204903;28;20129;-81
2021/08/16 08:03:25;;;;;;;1.58;0.90;;;;;;;;;;6206423;28;20038;-82
2021/08/16 08:06:28;;;;;;;2.05;0.90;;;;;;;;;;6195612;28;20042;-83
2021/08/16 08:09:32;;;;;;;4.07;0.97;;;;;;;;;;6199833;28;20050;-81
2021/08/16 08:12:35;;;;;;;1.88;0.80;;;;;;;;;;6181147;28;20136;-82
2021/08/16 08:15:37;;;;;;;2.80;1.00;;;;;;;;;;6213868;28;20052;-81
2021/08/16 08:18:38;;;;;;;2.05;0.70;;;;;;;;;;6204902;28;20046;-81
2021/08/16 08:21:40;;;;;;;4.07;0.85;;;;;;;;;;6204065;28;20149;-80
2021/08/16 08:24:44;;;;;;;4.47;1.02;;;;;;;;;;6202580;28;20621;-81
2021/08/16 08:27:46;;;;;;;4.40;0.90;;;;;;;;;;6211377;28;20055;-81
2021/08/16 08:30:48;;;;;;;3.80;0.90;;;;;;;;;;6200509;28;20121;-81
2021/08/16 08:33:50;;;;;;;1.10;0.80;;;;;;;;;;6224359;28;20062;-81
2021/08/16 08:36:52;;;;;;;5.30;1.15;;;;;;;;;;6180172;28;20084;-81
2021/08/16 08:39:53;;;;;;;4.05;0.70;;;;;;;;;;6183054;28;20100;-80
2021/08/16 08:42:55;;;;;;;2.65;0.88;;;;;;;;;;6196615;28;20042;-81
2021/08/16 08:45:57;;;;;;;4.23;1.23;;;;;;;;;;6202873;28;20058;-80
2021/08/16 08:49:04;;;;;;;2.38;1.02;;;;;;;;;;6205467;28;20070;-82
2021/08/16 08:52:07;;;;;;;2.53;1.00;;;;;;;;;;6209669;28;20041;-82
2021/08/16 08:55:09;;;;;;;1.90;0.93;;;;;;;;;;6205346;28;20046;-81
2021/08/16 08:58:31;;;;;;;2.90;0.70;;;;;;;;;;6228655;28;20507;-83
2021/08/16 09:01:33;;;;;;;3.63;1.08;;;;;;;;;;6218757;28;20054;-82
2021/08/16 09:04:35;;;;;;;3.53;0.70;;;;;;;;;;6206626;28;20058;-82
2021/08/16 09:07:39;;;;;;;1.98;0.85;;;;;;;;;;6213894;28;20073;-81
2021/08/16 09:10:40;;;;;;;2.67;0.93;;;;;;;;;;6216903;28;20057;-82
2021/08/16 09:14:04;;;;;;;2.85;1.13;;;;;;;;;;6222923;28;20125;-81
2021/08/16 09:17:05;;;;;;;7.28;1.00;;;;;;;;;;6205024;28;20048;-81
2021/08/16 09:20:35;;;;;;;1.90;0.90;;;;;;;;;;6199069;28;20404;-82
2021/08/16 09:23:48;;;;;;;2.70;1.05;;;;;;;;;;6205564;28;20098;-83
2021/08/16 09:26:50;;;;;;;;;;;;;;;;;;6119410;28;20058;-81
2021/08/16 09:29:56;;;;;;;4.28;1.00;;;;;;;;;;6169430;28;19922;-81
2021/08/16 09:32:58;;;;;;;1.45;0.80;;;;;;;;;;6183878;28;20313;-81
2021/08/16 09:36:00;;;;;;;3.13;1.20;;;;;;;;;;6203210;28;20102;-81
2021/08/16 09:39:03;;;;;;;2.72;1.10;;;;;;;;;;6197159;28;20133;-81
2021/08/16 09:42:05;;;;;;;4.57;0.95;;;;;;;;;;6207560;28;20518;-80
2021/08/16 09:45:07;;;;;;;3.00;1.10;;;;;;;;;;6218715;28;20054;-82
2021/08/16 09:48:20;;;;;;;1.37;0.80;;;;;;;;;;6229745;28;20041;-81
2021/08/16 09:51:23;;;;;;;2.38;0.98;;;;;;;;;;6221229;28;20333;-83
2021/08/16 09:54:26;;;;;;;4.30;1.17;;;;;;;;;;6227256;28;20052;-82
2021/08/16 09:57:31;;;;;;;;;;;;;;;;;;6194960;28;20045;-82
2021/08/16 10:00:34;;;;;;;3.08;0.90;;;;;;;;;;6199870;28;19932;-83
2021/08/16 10:03:39;;;;;;;1.80;0.90;;;;;;;;;;6166226;28;20045;-83
2021/08/16 10:06:45;;;;;;;2.65;1.10;;;;;;;;;;6145405;28;20050;-83
2021/08/16 10:10:15;;;;;;;3.55;1.10;;;;;;;;;;6084959;28;20047;-83
2021/08/16 10:13:24;;;;;;;3.70;1.33;;;;;;;;;;6131254;28;20057;-82
2021/08/16 10:20:15;;;;;;;3.50;1.00;;;;;;;;;;6142575;28;20056;-83
2021/08/16 10:23:26;;;;;;;3.78;1.40;;;;;;;;;;6086372;28;20127;-80
2021/08/16 10:26:40;;;;;;;2.40;1.08;;;;;;;;;;6117533;28;20046;-82
2021/08/16 10:30:12;;;;;;;4.57;1.70;;;;;;;;;;6152825;28;20046;-83
2021/08/16 10:33:18;;;;;;;2.95;1.10;;;;;;;;;;6144589;28;20142;-83
2021/08/16 10:36:23;;;;;;;4.20;1.20;;;;;;;;;;6151500;28;20046;-82
2021/08/16 10:39:54;;;;;;;4.95;1.73;;;;;;;;;;6163135;28;20053;-84
2021/08/16 10:43:13;;;;;;;1.48;0.98;;;;;;;;;;6141052;28;20050;-83
2021/08/16 10:46:23;;;;;;;3.83;1.23;;;;;;;;;;6124193;28;20054;-83
2021/08/16 10:49:43;;;;;;;4.75;1.30;;;;;;;;;;6139536;28;20042;-83
2021/08/16 10:53:09;;;;;;;2.33;1.25;;;;;;;;;;6125499;28;20053;-84
2021/08/16 10:56:17;;;;;;;4.25;1.20;;;;;;;;;;6166088;28;20069;-83
2021/08/16 10:59:51;;;;;;;4.67;1.40;;;;;;;;;;6160494;28;20472;-84
2021/08/16 11:03:13;;;;;;;4.43;1.58;;;;;;;;;;6098140;28;20294;-82
2021/08/16 11:06:29;;;;;;;4.80;1.35;;;;;;;;;;6141073;28;20102;-79
2021/08/16 11:09:40;;;;;;;3.72;1.52;;;;;;;;;;6182170;28;20062;-80
2021/08/16 11:12:46;;;;;;;3.75;1.35;;;;;;;;;;6166014;28;20045;-80
2021/08/16 11:15:49;;;;;;;5.88;1.75;;;;;;;;;;6214322;28;20045;-82
2021/08/16 11:18:55;;;;;;;4.00;1.25;;;;;;;;;;6206523;28;20054;-82
2021/08/16 11:22:01;;;;;;;3.15;1.35;;;;;;;;;;6198681;28;20061;-81
2021/08/16 11:25:06;;;;;;;5.22;1.80;;;;;;;;;;6215451;28;20141;-80
2021/08/16 11:28:08;;;;;;;3.97;1.40;;;;;;;;;;6216768;28;20056;-81
2021/08/16 11:31:09;;;;;;;3.75;1.60;;;;;;;;;;6175903;28;20039;-81
2021/08/16 11:34:11;;;;;;;7.55;1.60;;;;;;;;;;6185176;28;20050;-78
2021/08/16 11:37:15;;;;;;;4.15;1.40;;;;;;;;;;6176516;28;20050;-80
2021/08/16 11:40:17;;;;;;;4.85;1.63;;;;;;;;;;6193387;28;20049;-80
2021/08/16 11:43:35;;;;;;;4.97;2.08;;;;;;;;;;6205371;28;20061;-80
2021/08/16 11:46:37;;;;;;;2.15;1.35;;;;;;;;;;6196648;28;20072;-79
2021/08/16 11:49:39;;;;;;;6.03;1.63;;;;;;;;;;6217056;28;20500;-79
2021/08/16 11:52:41;;;;;;;5.60;1.90;;;;;;;;;;6190102;28;20097;-79
2021/08/16 11:55:43;;;;;;;3.28;1.45;;;;;;;;;;6217620;28;20056;-79
2021/08/16 11:58:44;;;;;;;5.22;2.03;;;;;;;;;;6179280;28;20563;-79
2021/08/16 12:01:49;;;;;;;2.95;1.80;;;;;;;;;;6188134;28;20119;-79
2021/08/16 12:04:53;;;;;;;4.53;2.30;;;;;;;;;;6201646;28;20073;-78
2021/08/16 12:07:55;;;;;;;5.88;1.50;;;;;;;;;;6187843;28;20124;-77
2021/08/16 12:10:59;;;;;;;4.30;2.45;;;;;;;;;;6191038;28;20069;-80
2021/08/16 12:14:02;;;;;;;3.67;1.67;;;;;;;;;;6146485;28;20478;-81
2021/08/16 12:17:06;;;;;;;4.47;1.80;;;;;;;;;;6110507;28;20047;-81
2021/08/16 12:20:22;;;;;;;2.92;1.70;;;;;;;;;;6137104;28;20532;-81
2021/08/16 12:23:36;;;;;;;4.50;1.90;;;;;;;;;;6205725;28;20060;-81
2021/08/16 12:27:02;;;;;;;3.25;1.83;;;;;;;;;;6182028;28;20535;-82
2021/08/16 12:30:28;;;;;;;5.20;2.03;;;;;;;;;;6134892;28;20046;-82
2021/08/16 12:33:56;;;;;;;4.50;1.85;;;;;;;;;;6115445;28;20050;-82
2021/08/16 12:37:32;;;;;;;2.75;1.75;;;;;;;;;;6160574;28;20103;-81
2021/08/16 12:40:40;;;;;;;4.07;1.85;;;;;;;;;;6084770;28;20060;-80
2021/08/16 12:43:43;;;;;;;6.43;1.90;;;;;;;;;;6155396;28;20120;-81
2021/08/16 12:46:56;;;;;;;2.33;1.60;;;;;;;;;;6181912;28;20050;-80
2021/08/16 12:50:01;;;;;;;4.43;2.10;;;;;;;;;;6206584;28;20695;-81
2021/08/16 12:53:04;;;;;;;3.88;1.95;;;;;;;;;;6182511;28;20622;-81
2021/08/16 12:56:07;;;;;;;4.68;1.80;;;;;;;;;;6188578;28;20061;-81
2021/08/16 12:59:08;;;;;;;;;;;;;;;;;;6227172;28;20060;-81
2021/08/16 13:02:10;;;;;;;3.88;1.67;;;;;;;;;;6205651;28;19932;-80
2021/08/16 13:05:13;;;;;;;3.15;1.90;;;;;;;;;;6202636;28;20047;-81
2021/08/16 13:08:14;;;;;;;5.07;2.10;;;;;;;;;;6218536;28;20046;-81
2021/08/16 13:11:16;;;;;;;4.75;2.00;;;;;;;;;;6216336;28;20522;-79
2021/08/16 13:14:18;;;;;;;4.63;2.20;;;;;;;;;;6175099;28;20054;-80
2021/08/16 13:17:20;;;;;;;4.32;2.10;;;;;;;;;;6228412;28;20042;-81
2021/08/16 13:20:22;;;;;;;3.47;1.80;;;;;;;;;;6228939;28;20089;-81
2021/08/16 13:23:24;;;;;;;2.95;1.85;;;;;;;;;;6174617;28;20046;-81
2021/08/16 13:26:26;;;;;;;3.83;2.00;;;;;;;;;;6199802;28;20125;-80
2021/08/16 13:29:27;;;;;;;4.85;2.05;;;;;;;;;;6194656;28;20060;-80
2021/08/16 13:32:29;;;;;;;3.08;2.10;;;;;;;;;;6214972;28;20046;-80
2021/08/16 13:35:31;;;;;;;4.05;2.17;;;;;;;;;;6197848;28;20049;-80
2021/08/16 13:38:33;;;;;;;5.35;2.08;;;;;;;;;;6208667;28;20117;-81
2021/08/16 13:41:34;;;;;;;4.25;2.20;;;;;;;;;;6221868;28;20042;-80
2021/08/16 13:44:36;;;;;;;4.75;2.42;;;;;;;;;;6222695;28;20042;-81
2021/08/16 13:47:38;;;;;;;6.07;2.15;;;;;;;;;;6225492;28;20130;-80
2021/08/16 13:50:40;;;;;;;3.25;1.65;;;;;;;;;;6223673;28;20057;-80
2021/08/16 13:53:42;;;;;;;2.67;1.50;;;;;;;;;;6217028;28;20085;-80
2021/08/16 13:56:45;;;;;;;2.72;1.50;;;;;;;;;;6208015;28;20041;-81
2021/08/16 13:59:47;;;;;;;0.80;0.80;;;;;;;;;;6225420;28;20060;-79
2021/08/16 14:02:49;;;;;;;2.42;0.90;;;;;;;;;;6228242;28;20057;-80
2021/08/16 14:05:50;;;;;;;1.48;1.00;;;;;;;;;;6219361;28;20058;-81
2021/08/16 14:08:53;;;;;;;1.85;0.70;;;;;;;;;;6202963;28;20242;-78
2021/08/16 14:11:54;;;;;;;1.02;0.75;;;;;;;;;;6204046;28;20133;-79
2021/08/16 14:14:56;;;;;;;1.35;0.60;;;;;;;;;;6206637;28;20148;-79
2021/08/16 14:17:58;;;;;;;0.60;0.60;;;;;;;;;;6229568;28;20064;-80
2021/08/16 14:20:59;;;;;;;0.60;0.55;;;;;;;;;;6211796;28;20056;-79
2021/08/16 14:24:01;;;;;;;0.93;0.50;;;;;;;;;;6231034;28;20069;-81
2021/08/16 14:27:05;;;;;;;1.15;0.35;;;;;;;;;;6222389;28;20054;-81
2021/08/16 14:30:07;;;;;;;1.40;0.35;;;;;;;;;;6219314;28;20076;-79
2021/08/16 14:33:10;;;;;;;0.57;0.47;;;;;;;;;;6225851;28;20045;-80
2021/08/16 14:36:12;;;;;;;0.57;0.57;;;;;;;;;;6224295;28;20057;-80
2021/08/16 14:39:14;;;;;;;2.15;1.27;;;;;;;;;;6229137;28;20127;-81
2021/08/16 14:42:18;;;;;;;2.40;1.83;;;;;;;;;;6226682;28;20061;-79
2021/08/16 14:45:20;;;;;;;3.45;2.58;;;;;;;;;;6195745;28;20054;-80
2021/08/16 14:48:24;;;;;;;4.43;2.40;;;;;;;;;;6230123;28;20045;-84
2021/08/16 14:51:26;;;;;;;4.07;2.25;;;;;;;;;;6226510;28;20046;-82
2021/08/16 14:54:29;;;;;;;5.75;2.47;;;;;;;;;;6212123;28;20110;-80
2021/08/16 14:57:31;;;;;;;;;;;;;;;;;;6212465;28;20062;-81
2021/08/16 15:00:33;;;;;;;3.38;2.17;;;;;;;;;;6222699;28;19921;-81
2021/08/16 15:03:37;;;;;;;2.78;2.25;;;;;;;;;;6217656;28;20104;-80
2021/08/16 15:06:39;;;;;;;2.75;2.40;;;;;;;;;;6205060;28;20110;-82
2021/08/16 15:09:41;;;;;;;5.43;2.53;;;;;;;;;;6208597;28;20042;-81
2021/08/16 15:12:42;;;;;;;7.13;3.60;;;;;;;;;;6206711;28;20042;-79
2021/08/16 15:15:44;;;;;;;7.43;4.25;;;;;;;;;;6196851;28;20050;-80
2021/08/16 15:18:46;;;;;;;10.38;4.57;;;;;;;;;;6184979;28;20066;-81
2021/08/16 15:21:48;;;;;;;9.93;5.18;;;;;;;;;;6209635;28;20069;-81
2021/08/16 15:24:50;;;;;;;8.13;4.68;;;;;;;;;;6234331;28;20073;-79
2021/08/16 15:28:03;;;;;;;8.13;4.82;;;;;;;;;;6192190;28;20510;-81
2021/08/16 15:31:05;;;;;;;9.05;5.00;;;;;;;;;;6215303;28;20073;-82
2021/08/16 15:34:06;;;;;;;9.25;5.25;;;;;;;;;;6225938;28;20077;-81
2021/08/16 15:37:08;;;;;;;10.75;5.15;;;;;;;;;;6222250;28;20045;-81
2021/08/16 15:40:13;;;;;;;9.15;5.03;;;;;;;;;;6203905;28;20066;-82
2021/08/16 15:43:15;;;;;;;9.57;4.80;;;;;;;;;;6230064;28;20419;-83
2021/08/16 15:46:17;;;;;;;9.70;5.55;;;;;;;;;;6191431;28;20046;-82
2021/08/16 15:49:19;;;;;;;9.15;5.15;;;;;;;;;;6207201;28;20045;-82
2021/08/16 15:52:21;;;;;;;9.35;5.55;;;;;;;;;;6213620;28;20101;-83
2021/08/16 15:55:22;;;;;;;11.85;6.30;;;;;;;;;;6230185;28;20038;-82
2021/08/16 15:58:24;;;;;;;10.07;5.75;;;;;;;;;;6226827;28;20129;-82
2021/08/16 16:01:26;;;;;;;11.68;6.30;;;;;;;;;;6216478;28;20049;-82
2021/08/16 16:04:28;;;;;;;10.82;6.78;;;;;;;;;;6214541;28;20042;-81
2021/08/16 16:07:30;;;;;;;12.02;7.30;;;;;;;;;;6196709;28;20066;-82
2021/08/16 16:10:40;;;;;;;10.35;7.28;;;;;;;;;;6179107;28;20057;-83
2021/08/16 16:13:41;;;;;;;12.65;7.38;;;;;;;;;;6200584;28;20105;-82
2021/08/16 16:16:43;;;;;;;15.77;8.15;;;;;;;;;;6179547;28;20038;-81
2021/08/16 16:19:45;;;;;;;14.75;8.82;;;;;;;;;;6196698;28;20058;-83
2021/08/16 16:22:48;;;;;;;12.43;7.82;;;;;;;;;;6199376;28;20114;-82
2021/08/16 16:25:52;;;;;;;12.60;8.00;;;;;;;;;;6198330;28;20054;-82
2021/08/16 16:28:57;;;;;;;16.08;8.90;;;;;;;;;;6206673;28;20047;-82
2021/08/16 16:31:59;;;;;;;16.73;8.57;;;;;;;;;;6201617;28;20105;-82
2021/08/16 16:35:03;;;;;;;12.38;8.20;;;;;;;;;;6219439;28;20100;-82
2021/08/16 16:38:04;;;;;;;13.40;8.30;;;;;;;;;;6176531;28;20115;-83
2021/08/16 16:41:06;;;;;;;18.05;8.68;;;;;;;;;;6195501;28;20044;-83
2021/08/16 16:44:08;;;;;;;19.25;8.30;;;;;;;;;;6178491;28;20495;-82
2021/08/16 16:47:13;;;;;;;12.30;7.20;;;;;;;;;;6220159;28;20129;-81
2021/08/16 16:50:22;;;;;;;10.50;5.72;;;;;;;;;;6203741;28;20045;-79
2021/08/16 16:53:25;;;;;;;10.73;5.90;;;;;;;;;;6225271;28;20045;-80
2021/08/16 16:56:27;;;;;;;5.88;2.63;;;;;;;;;;6208802;28;20423;-80
2021/08/16 16:59:29;;;;;;;4.90;2.30;;;;;;;;;;6204517;28;20073;-80
2021/08/16 17:02:34;;;;;;;4.57;2.50;;;;;;;;;;6207938;28;20109;-79
2021/08/16 17:05:36;;;;;;;5.28;2.47;;;;;;;;;;6214443;28;20057;-79
2021/08/16 17:08:38;;;;;;;6.10;2.05;;;;;;;;;;6204342;28;20045;-80
2021/08/16 17:11:41;;;;;;;5.65;2.67;;;;;;;;;;6204682;28;20511;-81
2021/08/16 17:14:43;;;;;;;4.95;2.05;;;;;;;;;;6210849;28;20109;-80
2021/08/16 17:17:44;;;;;;;4.30;2.25;;;;;;;;;;6224178;28;20045;-80
2021/08/16 17:20:46;;;;;;;4.82;2.30;;;;;;;;;;6223779;28;20080;-78
2021/08/16 17:23:53;;;;;;;5.65;1.92;;;;;;;;;;6223299;28;20124;-81
2021/08/16 17:26:55;;;;;;;4.07;1.80;;;;;;;;;;6227539;28;20046;-79
2021/08/16 17:29:56;;;;;;;3.80;1.58;;;;;;;;;;6210758;28;20049;-78
2021/08/16 17:32:58;;;;;;;5.72;1.90;;;;;;;;;;6202229;28;20042;-79
2021/08/16 17:36:00;;;;;;;5.70;1.92;;;;;;;;;;6208101;28;20046;-79
2021/08/16 17:39:04;;;;;;;5.38;1.98;;;;;;;;;;6227452;28;20138;-79
2021/08/16 17:42:07;;;;;;;5.53;1.80;;;;;;;;;;6208124;28;20056;-78
2021/08/16 17:45:09;;;;;;;4.72;1.92;;;;;;;;;;6208566;28;20043;-77
2021/08/16 17:48:11;;;;;;;5.45;2.10;;;;;;;;;;6209215;28;20043;-80
2021/08/16 17:51:12;;;;;;;6.63;2.35;;;;;;;;;;6210823;28;20056;-80
2021/08/16 17:54:14;;;;;;;5.72;2.20;;;;;;;;;;6220836;28;20052;-80
2021/08/16 17:57:17;;;;;;;5.60;2.30;;;;;;;;;;6221546;28;20052;-80
2021/08/16 18:00:18;;;;;;;7.80;2.90;;;;;;;;;;6187785;28;20055;-81
2021/08/16 18:03:20;;;;;;;5.75;2.38;;;;;;;;;;6181025;28;20054;-79
2021/08/16 18:06:22;;;;;;;6.78;2.35;;;;;;;;;;6216992;28;20045;-79
2021/08/16 18:09:24;;;;;;;9.43;3.05;;;;;;;;;;6195520;28;20050;-81
2021/08/16 18:12:26;;;;;;;6.15;3.03;;;;;;;;;;6186335;28;20053;-80
2021/08/16 18:15:27;;;;;;;7.60;2.70;;;;;;;;;;6181196;28;20042;-80
2021/08/16 18:18:29;;;;;;;8.77;2.67;;;;;;;;;;6192516;28;20050;-80
2021/08/16 18:21:35;;;;;;;5.18;2.50;;;;;;;;;;6176195;28;20045;-79
2021/08/16 18:24:39;;;;;;;7.07;2.80;;;;;;;;;;6189810;28;20054;-79